sensor_id;sensor_type;location;lat;lon;timestamp;P1;durP1;ratioP1;P2;durP2;ratioP2
12120;SDS011;6124;59.460;17.908;2022-12-18T00:02:01;23.80;;;12.87;;
12120;SDS011;6124;59.460;17.908;2022-12-18T00:04:29;23.27;;;10.90;;
12120;SDS011;6124;59.460;17.908;2022-12-18T00:06:56;26.87;;;11.77;;
12120;SDS011;6124;59.460;17.908;2022-12-18T00:09:23;26.17;;;12.30;;
12120;SDS011;6124;59.460;17.908;2022-12-18T00:11:50;25.77;;;12.13;;
12120;SDS011;6124;59.460;17.908;2022-12-18T00:14:19;26.37;;;12.50;;
12120;SDS011;6124;59.460;17.908;2022-12-18T00:16:46;21.47;;;11.63;;
12120;SDS011;6124;59.460;17.908;2022-12-18T00:19:14;28.20;;;12.97;;
12120;SDS011;6124;59.460;17.908;2022-12-18T00:21:41;23.87;;;12.23;;
12120;SDS011;6124;59.460;17.908;2022-12-18T00:24:09;23.97;;;11.80;;
12120;SDS011;6124;59.460;17.908;2022-12-18T00:26:37;24.77;;;12.57;;
12120;SDS011;6124;59.460;17.908;2022-12-18T00:29:05;21.40;;;11.67;;
12120;SDS011;6124;59.460;17.908;2022-12-18T00:31:34;25.33;;;12.07;;
12120;SDS011;6124;59.460;17.908;2022-12-18T00:34:01;28.73;;;12.67;;
12120;SDS011;6124;59.460;17.908;2022-12-18T00:36:30;21.77;;;11.97;;
12120;SDS011;6124;59.460;17.908;2022-12-18T00:38:58;22.67;;;11.50;;
12120;SDS011;6124;59.460;17.908;2022-12-18T00:41:26;24.17;;;12.40;;
12120;SDS011;6124;59.460;17.908;2022-12-18T00:44:12;21.80;;;11.40;;
12120;SDS011;6124;59.460;17.908;2022-12-18T00:46:42;21.70;;;12.87;;
12120;SDS011;6124;59.460;17.908;2022-12-18T00:49:09;23.80;;;11.83;;
12120;SDS011;6124;59.460;17.908;2022-12-18T00:51:36;28.23;;;13.07;;
12120;SDS011;6124;59.460;17.908;2022-12-18T00:54:04;21.70;;;11.80;;
12120;SDS011;6124;59.460;17.908;2022-12-18T00:56:31;23.80;;;11.53;;
12120;SDS011;6124;59.460;17.908;2022-12-18T00:58:58;23.90;;;11.00;;
12120;SDS011;6124;59.460;17.908;2022-12-18T01:01:25;21.43;;;11.90;;
12120;SDS011;6124;59.460;17.908;2022-12-18T01:03:54;23.07;;;11.80;;
12120;SDS011;6124;59.460;17.908;2022-12-18T01:06:21;21.50;;;11.33;;
12120;SDS011;6124;59.460;17.908;2022-12-18T01:08:49;20.10;;;11.10;;
12120;SDS011;6124;59.460;17.908;2022-12-18T01:11:17;18.67;;;11.37;;
12120;SDS011;6124;59.460;17.908;2022-12-18T01:13:44;23.53;;;11.07;;
12120;SDS011;6124;59.460;17.908;2022-12-18T01:16:12;22.03;;;10.40;;
12120;SDS011;6124;59.460;17.908;2022-12-18T01:18:39;19.10;;;10.67;;
12120;SDS011;6124;59.460;17.908;2022-12-18T01:21:08;15.60;;;9.87;;
12120;SDS011;6124;59.460;17.908;2022-12-18T01:23:36;22.80;;;10.83;;
12120;SDS011;6124;59.460;17.908;2022-12-18T01:26:04;20.23;;;10.97;;
12120;SDS011;6124;59.460;17.908;2022-12-18T01:28:32;19.63;;;10.07;;
12120;SDS011;6124;59.460;17.908;2022-12-18T01:31:08;20.37;;;10.93;;
12120;SDS011;6124;59.460;17.908;2022-12-18T01:33:36;20.17;;;10.60;;
12120;SDS011;6124;59.460;17.908;2022-12-18T01:36:03;22.00;;;11.13;;
12120;SDS011;6124;59.460;17.908;2022-12-18T01:38:32;21.20;;;10.60;;
12120;SDS011;6124;59.460;17.908;2022-12-18T01:40:59;20.27;;;10.27;;
12120;SDS011;6124;59.460;17.908;2022-12-18T01:46:09;19.37;;;10.60;;
12120;SDS011;6124;59.460;17.908;2022-12-18T01:48:36;19.93;;;10.17;;
12120;SDS011;6124;59.460;17.908;2022-12-18T01:51:04;17.50;;;10.03;;
12120;SDS011;6124;59.460;17.908;2022-12-18T01:53:32;18.63;;;10.60;;
12120;SDS011;6124;59.460;17.908;2022-12-18T01:56:00;18.60;;;9.57;;
12120;SDS011;6124;59.460;17.908;2022-12-18T01:58:28;22.07;;;10.80;;
12120;SDS011;6124;59.460;17.908;2022-12-18T02:00:57;19.47;;;10.47;;
12120;SDS011;6124;59.460;17.908;2022-12-18T02:03:24;20.53;;;10.50;;
12120;SDS011;6124;59.460;17.908;2022-12-18T02:05:53;21.83;;;10.90;;
12120;SDS011;6124;59.460;17.908;2022-12-18T02:08:22;20.00;;;10.30;;
12120;SDS011;6124;59.460;17.908;2022-12-18T02:10:56;23.23;;;10.90;;
12120;SDS011;6124;59.460;17.908;2022-12-18T02:13:28;18.90;;;9.97;;
12120;SDS011;6124;59.460;17.908;2022-12-18T02:15:58;19.70;;;10.47;;
12120;SDS011;6124;59.460;17.908;2022-12-18T02:18:30;22.77;;;10.63;;
12120;SDS011;6124;59.460;17.908;2022-12-18T02:20:59;22.60;;;10.73;;
12120;SDS011;6124;59.460;17.908;2022-12-18T02:23:33;20.50;;;10.93;;
12120;SDS011;6124;59.460;17.908;2022-12-18T02:26:06;17.97;;;9.70;;
12120;SDS011;6124;59.460;17.908;2022-12-18T02:28:35;20.80;;;10.07;;
12120;SDS011;6124;59.460;17.908;2022-12-18T02:31:04;18.50;;;10.10;;
12120;SDS011;6124;59.460;17.908;2022-12-18T02:33:32;22.60;;;10.83;;
12120;SDS011;6124;59.460;17.908;2022-12-18T02:36:01;20.10;;;11.00;;
12120;SDS011;6124;59.460;17.908;2022-12-18T02:38:28;21.73;;;10.63;;
12120;SDS011;6124;59.460;17.908;2022-12-18T02:40:56;19.20;;;9.90;;
12120;SDS011;6124;59.460;17.908;2022-12-18T02:43:25;20.23;;;9.97;;
12120;SDS011;6124;59.460;17.908;2022-12-18T02:45:53;18.50;;;10.07;;
12120;SDS011;6124;59.460;17.908;2022-12-18T02:48:27;17.67;;;10.00;;
12120;SDS011;6124;59.460;17.908;2022-12-18T02:50:57;19.20;;;10.20;;
12120;SDS011;6124;59.460;17.908;2022-12-18T02:53:27;19.00;;;10.17;;
12120;SDS011;6124;59.460;17.908;2022-12-18T02:56:00;20.60;;;10.57;;
12120;SDS011;6124;59.460;17.908;2022-12-18T02:58:32;20.57;;;10.17;;
12120;SDS011;6124;59.460;17.908;2022-12-18T03:01:02;19.60;;;9.73;;
12120;SDS011;6124;59.460;17.908;2022-12-18T03:03:31;17.00;;;8.87;;
12120;SDS011;6124;59.460;17.908;2022-12-18T03:06:01;18.07;;;9.90;;
12120;SDS011;6124;59.460;17.908;2022-12-18T03:08:31;19.20;;;9.73;;
12120;SDS011;6124;59.460;17.908;2022-12-18T03:11:01;19.53;;;9.67;;
12120;SDS011;6124;59.460;17.908;2022-12-18T03:13:30;16.90;;;9.07;;
12120;SDS011;6124;59.460;17.908;2022-12-18T03:15:59;16.10;;;8.83;;
12120;SDS011;6124;59.460;17.908;2022-12-18T03:18:29;15.47;;;9.17;;
12120;SDS011;6124;59.460;17.908;2022-12-18T03:20:58;23.77;;;10.57;;
12120;SDS011;6124;59.460;17.908;2022-12-18T03:23:29;17.93;;;9.63;;
12120;SDS011;6124;59.460;17.908;2022-12-18T03:25:58;24.37;;;9.80;;
12120;SDS011;6124;59.460;17.908;2022-12-18T03:28:28;18.03;;;8.80;;
12120;SDS011;6124;59.460;17.908;2022-12-18T03:30:57;16.73;;;9.43;;
12120;SDS011;6124;59.460;17.908;2022-12-18T03:33:27;17.07;;;10.07;;
12120;SDS011;6124;59.460;17.908;2022-12-18T03:35:55;17.27;;;9.77;;
12120;SDS011;6124;59.460;17.908;2022-12-18T03:38:23;19.33;;;9.90;;
12120;SDS011;6124;59.460;17.908;2022-12-18T03:40:53;18.70;;;10.13;;
12120;SDS011;6124;59.460;17.908;2022-12-18T03:43:26;15.47;;;8.67;;
12120;SDS011;6124;59.460;17.908;2022-12-18T03:46:03;20.90;;;9.57;;
12120;SDS011;6124;59.460;17.908;2022-12-18T03:48:35;18.10;;;9.00;;
12120;SDS011;6124;59.460;17.908;2022-12-18T03:51:05;16.93;;;9.33;;
12120;SDS011;6124;59.460;17.908;2022-12-18T03:53:36;18.40;;;9.40;;
12120;SDS011;6124;59.460;17.908;2022-12-18T03:56:04;16.20;;;8.93;;
12120;SDS011;6124;59.460;17.908;2022-12-18T03:58:32;17.83;;;9.00;;
12120;SDS011;6124;59.460;17.908;2022-12-18T04:01:01;17.30;;;9.43;;
12120;SDS011;6124;59.460;17.908;2022-12-18T04:03:30;17.60;;;9.10;;
12120;SDS011;6124;59.460;17.908;2022-12-18T04:05:59;15.77;;;8.63;;
12120;SDS011;6124;59.460;17.908;2022-12-18T04:08:27;14.50;;;8.63;;
12120;SDS011;6124;59.460;17.908;2022-12-18T04:10:54;15.00;;;8.30;;
12120;SDS011;6124;59.460;17.908;2022-12-18T04:13:22;15.70;;;8.80;;
12120;SDS011;6124;59.460;17.908;2022-12-18T04:15:49;17.93;;;9.07;;
12120;SDS011;6124;59.460;17.908;2022-12-18T04:18:16;15.23;;;8.77;;
12120;SDS011;6124;59.460;17.908;2022-12-18T04:20:44;17.63;;;9.60;;
12120;SDS011;6124;59.460;17.908;2022-12-18T04:23:12;18.33;;;8.83;;
12120;SDS011;6124;59.460;17.908;2022-12-18T04:25:39;18.07;;;9.50;;
12120;SDS011;6124;59.460;17.908;2022-12-18T04:28:07;15.07;;;9.10;;
12120;SDS011;6124;59.460;17.908;2022-12-18T04:30:34;16.80;;;8.67;;
12120;SDS011;6124;59.460;17.908;2022-12-18T04:33:01;15.83;;;8.57;;
12120;SDS011;6124;59.460;17.908;2022-12-18T04:35:31;15.30;;;8.60;;
12120;SDS011;6124;59.460;17.908;2022-12-18T04:37:59;18.73;;;8.87;;
12120;SDS011;6124;59.460;17.908;2022-12-18T04:40:27;14.73;;;8.70;;
12120;SDS011;6124;59.460;17.908;2022-12-18T04:42:55;16.20;;;8.07;;
12120;SDS011;6124;59.460;17.908;2022-12-18T04:45:22;15.63;;;8.27;;
12120;SDS011;6124;59.460;17.908;2022-12-18T04:47:49;20.07;;;9.13;;
12120;SDS011;6124;59.460;17.908;2022-12-18T04:50:16;14.90;;;8.27;;
12120;SDS011;6124;59.460;17.908;2022-12-18T04:52:44;16.27;;;8.77;;
12120;SDS011;6124;59.460;17.908;2022-12-18T04:55:11;16.97;;;9.47;;
12120;SDS011;6124;59.460;17.908;2022-12-18T04:57:39;17.77;;;9.03;;
12120;SDS011;6124;59.460;17.908;2022-12-18T05:00:07;15.43;;;8.20;;
12120;SDS011;6124;59.460;17.908;2022-12-18T05:02:34;14.77;;;8.47;;
12120;SDS011;6124;59.460;17.908;2022-12-18T05:05:02;19.70;;;9.57;;
12120;SDS011;6124;59.460;17.908;2022-12-18T05:07:29;16.80;;;8.70;;
12120;SDS011;6124;59.460;17.908;2022-12-18T05:09:56;17.60;;;9.50;;
12120;SDS011;6124;59.460;17.908;2022-12-18T05:12:24;16.37;;;8.90;;
12120;SDS011;6124;59.460;17.908;2022-12-18T05:14:52;15.30;;;9.17;;
12120;SDS011;6124;59.460;17.908;2022-12-18T05:17:20;18.63;;;9.83;;
12120;SDS011;6124;59.460;17.908;2022-12-18T05:19:47;16.90;;;9.40;;
12120;SDS011;6124;59.460;17.908;2022-12-18T05:22:14;17.97;;;10.23;;
12120;SDS011;6124;59.460;17.908;2022-12-18T05:24:41;17.70;;;9.63;;
12120;SDS011;6124;59.460;17.908;2022-12-18T05:27:09;18.37;;;10.10;;
12120;SDS011;6124;59.460;17.908;2022-12-18T05:29:36;16.10;;;8.90;;
12120;SDS011;6124;59.460;17.908;2022-12-18T05:32:05;17.83;;;9.50;;
12120;SDS011;6124;59.460;17.908;2022-12-18T05:34:32;16.13;;;9.20;;
12120;SDS011;6124;59.460;17.908;2022-12-18T05:36:59;18.70;;;9.00;;
12120;SDS011;6124;59.460;17.908;2022-12-18T05:39:26;15.67;;;8.30;;
12120;SDS011;6124;59.460;17.908;2022-12-18T05:41:54;14.37;;;8.03;;
12120;SDS011;6124;59.460;17.908;2022-12-18T05:44:21;16.67;;;8.77;;
12120;SDS011;6124;59.460;17.908;2022-12-18T05:46:48;16.90;;;8.37;;
12120;SDS011;6124;59.460;17.908;2022-12-18T05:49:17;17.53;;;8.83;;
12120;SDS011;6124;59.460;17.908;2022-12-18T05:51:44;15.87;;;8.70;;
12120;SDS011;6124;59.460;17.908;2022-12-18T05:54:11;15.43;;;8.37;;
12120;SDS011;6124;59.460;17.908;2022-12-18T05:56:38;15.60;;;9.17;;
12120;SDS011;6124;59.460;17.908;2022-12-18T05:59:06;18.43;;;9.93;;
12120;SDS011;6124;59.460;17.908;2022-12-18T06:01:33;15.80;;;8.57;;
12120;SDS011;6124;59.460;17.908;2022-12-18T06:04:00;14.77;;;8.20;;
12120;SDS011;6124;59.460;17.908;2022-12-18T06:06:29;16.17;;;9.17;;
12120;SDS011;6124;59.460;17.908;2022-12-18T06:08:56;16.83;;;8.43;;
12120;SDS011;6124;59.460;17.908;2022-12-18T06:11:24;16.17;;;8.50;;
12120;SDS011;6124;59.460;17.908;2022-12-18T06:13:52;16.13;;;8.30;;
12120;SDS011;6124;59.460;17.908;2022-12-18T06:16:19;17.93;;;8.70;;
12120;SDS011;6124;59.460;17.908;2022-12-18T06:18:47;18.73;;;9.43;;
12120;SDS011;6124;59.460;17.908;2022-12-18T06:21:14;15.87;;;8.33;;
12120;SDS011;6124;59.460;17.908;2022-12-18T06:23:43;20.10;;;8.30;;
12120;SDS011;6124;59.460;17.908;2022-12-18T06:26:11;14.50;;;7.93;;
12120;SDS011;6124;59.460;17.908;2022-12-18T06:28:39;14.33;;;7.87;;
12120;SDS011;6124;59.460;17.908;2022-12-18T06:31:06;19.00;;;8.23;;
12120;SDS011;6124;59.460;17.908;2022-12-18T06:33:34;17.27;;;8.23;;
12120;SDS011;6124;59.460;17.908;2022-12-18T06:36:02;17.17;;;7.97;;
12120;SDS011;6124;59.460;17.908;2022-12-18T06:38:30;14.80;;;8.00;;
12120;SDS011;6124;59.460;17.908;2022-12-18T06:40:59;17.90;;;8.23;;
12120;SDS011;6124;59.460;17.908;2022-12-18T06:43:26;16.60;;;8.23;;
12120;SDS011;6124;59.460;17.908;2022-12-18T06:45:57;17.10;;;8.70;;
12120;SDS011;6124;59.460;17.908;2022-12-18T06:48:26;15.40;;;8.07;;
12120;SDS011;6124;59.460;17.908;2022-12-18T06:50:53;16.27;;;8.47;;
12120;SDS011;6124;59.460;17.908;2022-12-18T06:53:21;18.50;;;8.13;;
12120;SDS011;6124;59.460;17.908;2022-12-18T06:55:48;18.17;;;9.13;;
12120;SDS011;6124;59.460;17.908;2022-12-18T06:58:17;15.10;;;8.60;;
12120;SDS011;6124;59.460;17.908;2022-12-18T07:00:44;14.97;;;8.10;;
12120;SDS011;6124;59.460;17.908;2022-12-18T07:03:12;15.53;;;7.50;;
12120;SDS011;6124;59.460;17.908;2022-12-18T07:05:39;13.67;;;8.03;;
12120;SDS011;6124;59.460;17.908;2022-12-18T07:08:06;14.30;;;8.03;;
12120;SDS011;6124;59.460;17.908;2022-12-18T07:10:39;14.40;;;7.83;;
12120;SDS011;6124;59.460;17.908;2022-12-18T07:13:07;15.43;;;7.67;;
12120;SDS011;6124;59.460;17.908;2022-12-18T07:15:35;14.03;;;7.77;;
12120;SDS011;6124;59.460;17.908;2022-12-18T07:18:03;16.63;;;8.70;;
12120;SDS011;6124;59.460;17.908;2022-12-18T07:20:30;13.77;;;7.97;;
12120;SDS011;6124;59.460;17.908;2022-12-18T07:22:57;14.33;;;8.30;;
12120;SDS011;6124;59.460;17.908;2022-12-18T07:25:24;15.97;;;8.37;;
12120;SDS011;6124;59.460;17.908;2022-12-18T07:27:52;17.90;;;8.47;;
12120;SDS011;6124;59.460;17.908;2022-12-18T07:30:19;17.07;;;9.10;;
12120;SDS011;6124;59.460;17.908;2022-12-18T07:32:48;19.77;;;9.17;;
12120;SDS011;6124;59.460;17.908;2022-12-18T07:35:15;17.50;;;8.33;;
12120;SDS011;6124;59.460;17.908;2022-12-18T07:37:42;17.83;;;8.53;;
12120;SDS011;6124;59.460;17.908;2022-12-18T07:40:11;16.63;;;8.27;;
12120;SDS011;6124;59.460;17.908;2022-12-18T07:42:38;16.30;;;8.63;;
12120;SDS011;6124;59.460;17.908;2022-12-18T07:45:05;19.47;;;9.27;;
12120;SDS011;6124;59.460;17.908;2022-12-18T07:47:34;17.70;;;8.40;;
12120;SDS011;6124;59.460;17.908;2022-12-18T07:50:04;15.87;;;8.23;;
12120;SDS011;6124;59.460;17.908;2022-12-18T07:52:31;19.13;;;8.83;;
12120;SDS011;6124;59.460;17.908;2022-12-18T07:54:58;19.40;;;9.13;;
12120;SDS011;6124;59.460;17.908;2022-12-18T07:57:26;15.57;;;8.33;;
12120;SDS011;6124;59.460;17.908;2022-12-18T07:59:53;16.67;;;9.60;;
12120;SDS011;6124;59.460;17.908;2022-12-18T08:02:20;16.50;;;9.33;;
12120;SDS011;6124;59.460;17.908;2022-12-18T08:04:48;16.03;;;8.30;;
12120;SDS011;6124;59.460;17.908;2022-12-18T08:07:16;17.43;;;8.57;;
12120;SDS011;6124;59.460;17.908;2022-12-18T08:09:44;17.63;;;9.00;;
12120;SDS011;6124;59.460;17.908;2022-12-18T08:12:11;16.37;;;9.23;;
12120;SDS011;6124;59.460;17.908;2022-12-18T08:14:38;17.27;;;9.20;;
12120;SDS011;6124;59.460;17.908;2022-12-18T08:17:06;18.10;;;9.80;;
12120;SDS011;6124;59.460;17.908;2022-12-18T08:19:33;19.30;;;9.87;;
12120;SDS011;6124;59.460;17.908;2022-12-18T08:22:00;16.77;;;9.20;;
12120;SDS011;6124;59.460;17.908;2022-12-18T08:24:29;18.33;;;9.63;;
12120;SDS011;6124;59.460;17.908;2022-12-18T08:26:56;18.07;;;10.40;;
12120;SDS011;6124;59.460;17.908;2022-12-18T08:29:23;17.93;;;9.87;;
12120;SDS011;6124;59.460;17.908;2022-12-18T08:31:50;18.57;;;9.43;;
12120;SDS011;6124;59.460;17.908;2022-12-18T08:34:18;15.80;;;9.40;;
12120;SDS011;6124;59.460;17.908;2022-12-18T08:36:45;17.13;;;9.77;;
12120;SDS011;6124;59.460;17.908;2022-12-18T08:39:12;16.03;;;9.27;;
12120;SDS011;6124;59.460;17.908;2022-12-18T08:41:41;18.47;;;10.03;;
12120;SDS011;6124;59.460;17.908;2022-12-18T08:44:28;18.00;;;9.53;;
12120;SDS011;6124;59.460;17.908;2022-12-18T08:47:04;20.10;;;10.93;;
12120;SDS011;6124;59.460;17.908;2022-12-18T08:49:31;17.07;;;10.00;;
12120;SDS011;6124;59.460;17.908;2022-12-18T08:51:58;18.50;;;10.17;;
12120;SDS011;6124;59.460;17.908;2022-12-18T08:54:26;20.60;;;10.20;;
12120;SDS011;6124;59.460;17.908;2022-12-18T08:56:54;18.20;;;10.20;;
12120;SDS011;6124;59.460;17.908;2022-12-18T08:59:22;21.80;;;10.07;;
12120;SDS011;6124;59.460;17.908;2022-12-18T09:01:49;16.80;;;9.83;;
12120;SDS011;6124;59.460;17.908;2022-12-18T09:04:16;18.80;;;10.27;;
12120;SDS011;6124;59.460;17.908;2022-12-18T09:06:43;18.23;;;9.73;;
12120;SDS011;6124;59.460;17.908;2022-12-18T09:09:11;17.60;;;10.03;;
12120;SDS011;6124;59.460;17.908;2022-12-18T09:11:38;16.03;;;9.23;;
12120;SDS011;6124;59.460;17.908;2022-12-18T09:14:07;17.13;;;9.73;;
12120;SDS011;6124;59.460;17.908;2022-12-18T09:16:35;18.00;;;10.00;;
12120;SDS011;6124;59.460;17.908;2022-12-18T09:19:03;17.07;;;9.83;;
12120;SDS011;6124;59.460;17.908;2022-12-18T09:21:31;17.60;;;10.70;;
12120;SDS011;6124;59.460;17.908;2022-12-18T09:23:59;20.57;;;10.03;;
12120;SDS011;6124;59.460;17.908;2022-12-18T09:26:26;20.03;;;10.40;;
12120;SDS011;6124;59.460;17.908;2022-12-18T09:28:53;17.93;;;9.67;;
12120;SDS011;6124;59.460;17.908;2022-12-18T09:31:23;16.90;;;10.07;;
12120;SDS011;6124;59.460;17.908;2022-12-18T09:33:51;16.43;;;9.57;;
12120;SDS011;6124;59.460;17.908;2022-12-18T09:36:18;17.97;;;10.43;;
12120;SDS011;6124;59.460;17.908;2022-12-18T09:38:45;18.73;;;10.87;;
12120;SDS011;6124;59.460;17.908;2022-12-18T09:41:19;15.50;;;9.60;;
12120;SDS011;6124;59.460;17.908;2022-12-18T09:43:52;18.90;;;9.97;;
12120;SDS011;6124;59.460;17.908;2022-12-18T09:46:23;16.50;;;10.13;;
12120;SDS011;6124;59.460;17.908;2022-12-18T09:48:52;19.60;;;11.10;;
12120;SDS011;6124;59.460;17.908;2022-12-18T09:51:22;20.30;;;10.13;;
12120;SDS011;6124;59.460;17.908;2022-12-18T09:53:50;20.33;;;10.53;;
12120;SDS011;6124;59.460;17.908;2022-12-18T09:56:19;18.10;;;10.60;;
12120;SDS011;6124;59.460;17.908;2022-12-18T09:58:49;17.57;;;11.33;;
12120;SDS011;6124;59.460;17.908;2022-12-18T10:01:21;24.13;;;12.73;;
12120;SDS011;6124;59.460;17.908;2022-12-18T10:03:50;18.90;;;10.73;;
12120;SDS011;6124;59.460;17.908;2022-12-18T10:06:18;18.67;;;10.63;;
12120;SDS011;6124;59.460;17.908;2022-12-18T10:08:49;22.40;;;11.00;;
12120;SDS011;6124;59.460;17.908;2022-12-18T10:11:22;18.87;;;10.57;;
12120;SDS011;6124;59.460;17.908;2022-12-18T10:13:52;21.13;;;10.40;;
12120;SDS011;6124;59.460;17.908;2022-12-18T10:16:22;18.83;;;9.93;;
12120;SDS011;6124;59.460;17.908;2022-12-18T10:19:04;20.73;;;11.13;;
12120;SDS011;6124;59.460;17.908;2022-12-18T10:21:35;16.37;;;9.63;;
12120;SDS011;6124;59.460;17.908;2022-12-18T10:24:08;16.27;;;9.60;;
12120;SDS011;6124;59.460;17.908;2022-12-18T10:26:39;18.60;;;10.27;;
12120;SDS011;6124;59.460;17.908;2022-12-18T10:29:08;17.10;;;10.43;;
12120;SDS011;6124;59.460;17.908;2022-12-18T10:31:36;19.57;;;10.17;;
12120;SDS011;6124;59.460;17.908;2022-12-18T10:34:08;16.17;;;10.10;;
12120;SDS011;6124;59.460;17.908;2022-12-18T10:36:35;17.73;;;9.87;;
12120;SDS011;6124;59.460;17.908;2022-12-18T10:39:13;22.03;;;10.93;;
12120;SDS011;6124;59.460;17.908;2022-12-18T10:41:41;23.97;;;9.93;;
12120;SDS011;6124;59.460;17.908;2022-12-18T10:44:16;18.13;;;10.83;;
12120;SDS011;6124;59.460;17.908;2022-12-18T10:46:44;18.53;;;10.93;;
12120;SDS011;6124;59.460;17.908;2022-12-18T10:49:23;17.20;;;10.53;;
12120;SDS011;6124;59.460;17.908;2022-12-18T10:51:50;16.37;;;9.67;;
12120;SDS011;6124;59.460;17.908;2022-12-18T10:54:20;18.40;;;10.67;;
12120;SDS011;6124;59.460;17.908;2022-12-18T10:56:48;14.70;;;9.77;;
12120;SDS011;6124;59.460;17.908;2022-12-18T10:59:15;19.10;;;10.70;;
12120;SDS011;6124;59.460;17.908;2022-12-18T11:01:47;15.87;;;9.93;;
12120;SDS011;6124;59.460;17.908;2022-12-18T11:04:16;17.43;;;9.63;;
12120;SDS011;6124;59.460;17.908;2022-12-18T11:06:53;16.67;;;9.60;;
12120;SDS011;6124;59.460;17.908;2022-12-18T11:09:22;18.47;;;9.87;;
12120;SDS011;6124;59.460;17.908;2022-12-18T11:11:49;17.57;;;9.97;;
12120;SDS011;6124;59.460;17.908;2022-12-18T11:14:20;17.77;;;10.27;;
12120;SDS011;6124;59.460;17.908;2022-12-18T11:16:48;19.97;;;10.23;;
12120;SDS011;6124;59.460;17.908;2022-12-18T11:19:20;17.53;;;10.23;;
12120;SDS011;6124;59.460;17.908;2022-12-18T11:21:49;16.97;;;9.70;;
12120;SDS011;6124;59.460;17.908;2022-12-18T11:24:22;18.97;;;10.60;;
12120;SDS011;6124;59.460;17.908;2022-12-18T11:26:53;18.63;;;9.60;;
12120;SDS011;6124;59.460;17.908;2022-12-18T11:29:22;20.00;;;10.33;;
12120;SDS011;6124;59.460;17.908;2022-12-18T11:31:50;18.57;;;10.27;;
12120;SDS011;6124;59.460;17.908;2022-12-18T11:34:19;18.40;;;10.07;;
12120;SDS011;6124;59.460;17.908;2022-12-18T11:36:48;17.93;;;9.37;;
12120;SDS011;6124;59.460;17.908;2022-12-18T11:39:17;17.97;;;9.93;;
12120;SDS011;6124;59.460;17.908;2022-12-18T11:41:48;17.00;;;10.50;;
12120;SDS011;6124;59.460;17.908;2022-12-18T11:44:38;19.73;;;10.03;;
12120;SDS011;6124;59.460;17.908;2022-12-18T11:47:09;14.33;;;8.83;;
12120;SDS011;6124;59.460;17.908;2022-12-18T11:49:38;15.93;;;9.13;;
12120;SDS011;6124;59.460;17.908;2022-12-18T11:52:09;18.90;;;10.17;;
12120;SDS011;6124;59.460;17.908;2022-12-18T11:54:37;16.83;;;10.17;;
12120;SDS011;6124;59.460;17.908;2022-12-18T11:57:07;17.20;;;9.73;;
12120;SDS011;6124;59.460;17.908;2022-12-18T11:59:38;17.17;;;9.53;;
12120;SDS011;6124;59.460;17.908;2022-12-18T12:02:16;17.27;;;9.37;;
12120;SDS011;6124;59.460;17.908;2022-12-18T12:04:53;17.03;;;9.37;;
12120;SDS011;6124;59.460;17.908;2022-12-18T12:07:26;14.40;;;9.17;;
12120;SDS011;6124;59.460;17.908;2022-12-18T12:10:01;13.53;;;8.47;;
12120;SDS011;6124;59.460;17.908;2022-12-18T12:12:35;16.17;;;9.43;;
12120;SDS011;6124;59.460;17.908;2022-12-18T12:15:13;18.83;;;9.23;;
12120;SDS011;6124;59.460;17.908;2022-12-18T12:17:45;14.70;;;8.57;;
12120;SDS011;6124;59.460;17.908;2022-12-18T12:20:15;12.27;;;8.30;;
12120;SDS011;6124;59.460;17.908;2022-12-18T12:22:47;19.47;;;9.47;;
12120;SDS011;6124;59.460;17.908;2022-12-18T12:25:21;14.10;;;8.67;;
12120;SDS011;6124;59.460;17.908;2022-12-18T12:27:53;16.30;;;8.67;;
12120;SDS011;6124;59.460;17.908;2022-12-18T12:30:24;13.43;;;8.23;;
12120;SDS011;6124;59.460;17.908;2022-12-18T12:33:02;13.90;;;8.80;;
12120;SDS011;6124;59.460;17.908;2022-12-18T12:35:34;14.10;;;8.40;;
12120;SDS011;6124;59.460;17.908;2022-12-18T12:38:07;13.10;;;8.03;;
12120;SDS011;6124;59.460;17.908;2022-12-18T12:40:36;15.80;;;8.13;;
12120;SDS011;6124;59.460;17.908;2022-12-18T12:43:10;14.57;;;8.70;;
12120;SDS011;6124;59.460;17.908;2022-12-18T12:45:40;13.60;;;7.93;;
12120;SDS011;6124;59.460;17.908;2022-12-18T12:48:10;15.00;;;8.03;;
12120;SDS011;6124;59.460;17.908;2022-12-18T12:50:40;19.23;;;8.47;;
12120;SDS011;6124;59.460;17.908;2022-12-18T12:53:09;13.27;;;8.40;;
12120;SDS011;6124;59.460;17.908;2022-12-18T12:55:41;18.43;;;11.43;;
12120;SDS011;6124;59.460;17.908;2022-12-18T12:58:12;23.37;;;10.97;;
12120;SDS011;6124;59.460;17.908;2022-12-18T13:00:44;14.63;;;8.83;;
12120;SDS011;6124;59.460;17.908;2022-12-18T13:03:15;13.13;;;7.20;;
12120;SDS011;6124;59.460;17.908;2022-12-18T13:05:48;13.90;;;7.93;;
12120;SDS011;6124;59.460;17.908;2022-12-18T13:08:22;12.97;;;8.50;;
12120;SDS011;6124;59.460;17.908;2022-12-18T13:10:49;16.00;;;7.73;;
12120;SDS011;6124;59.460;17.908;2022-12-18T13:13:48;15.60;;;7.97;;
12120;SDS011;6124;59.460;17.908;2022-12-18T13:16:17;12.07;;;7.20;;
12120;SDS011;6124;59.460;17.908;2022-12-18T13:18:48;12.93;;;6.53;;
12120;SDS011;6124;59.460;17.908;2022-12-18T13:21:18;17.80;;;8.20;;
12120;SDS011;6124;59.460;17.908;2022-12-18T13:23:48;13.27;;;9.77;;
12120;SDS011;6124;59.460;17.908;2022-12-18T13:26:29;11.50;;;6.90;;
12120;SDS011;6124;59.460;17.908;2022-12-18T13:28:59;13.47;;;6.93;;
12120;SDS011;6124;59.460;17.908;2022-12-18T13:34:16;12.13;;;6.10;;
12120;SDS011;6124;59.460;17.908;2022-12-18T13:36:43;15.17;;;6.10;;
12120;SDS011;6124;59.460;17.908;2022-12-18T13:39:20;11.70;;;6.70;;
12120;SDS011;6124;59.460;17.908;2022-12-18T13:41:48;11.73;;;6.43;;
12120;SDS011;6124;59.460;17.908;2022-12-18T13:44:23;9.33;;;5.67;;
12120;SDS011;6124;59.460;17.908;2022-12-18T13:46:51;11.07;;;5.83;;
12120;SDS011;6124;59.460;17.908;2022-12-18T13:49:21;9.80;;;5.40;;
12120;SDS011;6124;59.460;17.908;2022-12-18T13:51:49;12.13;;;5.30;;
12120;SDS011;6124;59.460;17.908;2022-12-18T13:54:18;13.00;;;5.47;;
12120;SDS011;6124;59.460;17.908;2022-12-18T13:56:47;10.47;;;5.00;;
12120;SDS011;6124;59.460;17.908;2022-12-18T13:59:18;10.77;;;4.83;;
12120;SDS011;6124;59.460;17.908;2022-12-18T14:01:49;10.63;;;4.63;;
12120;SDS011;6124;59.460;17.908;2022-12-18T14:04:18;9.30;;;4.80;;
12120;SDS011;6124;59.460;17.908;2022-12-18T14:06:46;13.57;;;5.40;;
12120;SDS011;6124;59.460;17.908;2022-12-18T14:09:14;9.77;;;5.90;;
12120;SDS011;6124;59.460;17.908;2022-12-18T14:11:45;13.97;;;4.93;;
12120;SDS011;6124;59.460;17.908;2022-12-18T14:14:13;13.80;;;5.87;;
12120;SDS011;6124;59.460;17.908;2022-12-18T14:16:41;11.90;;;9.13;;
12120;SDS011;6124;59.460;17.908;2022-12-18T14:19:12;9.37;;;4.90;;
12120;SDS011;6124;59.460;17.908;2022-12-18T14:21:44;12.37;;;5.00;;
12120;SDS011;6124;59.460;17.908;2022-12-18T14:24:13;12.53;;;5.00;;
12120;SDS011;6124;59.460;17.908;2022-12-18T14:26:40;14.43;;;7.90;;
12120;SDS011;6124;59.460;17.908;2022-12-18T14:29:18;13.20;;;7.77;;
12120;SDS011;6124;59.460;17.908;2022-12-18T14:31:46;10.97;;;5.40;;
12120;SDS011;6124;59.460;17.908;2022-12-18T14:34:16;9.13;;;4.33;;
12120;SDS011;6124;59.460;17.908;2022-12-18T14:36:51;9.30;;;4.70;;
12120;SDS011;6124;59.460;17.908;2022-12-18T14:39:19;19.77;;;9.50;;
12120;SDS011;6124;59.460;17.908;2022-12-18T14:41:46;20.20;;;11.60;;
12120;SDS011;6124;59.460;17.908;2022-12-18T14:44:15;15.40;;;7.90;;
12120;SDS011;6124;59.460;17.908;2022-12-18T14:46:42;11.43;;;5.80;;
12120;SDS011;6124;59.460;17.908;2022-12-18T14:49:19;12.70;;;6.23;;